North River, North Dakota
Current Conditions -  °F | °C
As of 1:53 AM on Wednesday 22 Oct 2014 (Local Time) from KFAR Reporting Station
Clear Clear  
Wind Chill: 55°   Ceiling: Unl
Heat Index: 55°   Visibility: 10mi
Dew Point: 41°   Wind: 25mph
Humidity: 59%   Direction: 150°SSE
Pressure: 29.9"   Gusts: 36mph
Location:  46.9259°N, 96.8507°W
Report Text: KFAR 220653Z 15022G31KT 10SM CLR 13/05 A2990 RMK AO2 PK WND 15031/0653 SLP125 T01280050
Loading
Personal Weather Stations






























Interactive Weather Map
Tropical Storm Tracking
New forecast layout! Learn more

10-Day Weather Forecast

Advertisements
Track Severe Weather on mobile